aviador You're here:

KMNI Decoded Metar

MANNING in SC, USA
Report Time2017-03-23 03:55:00
UTC Time2017-03-23 04:14:49
Flight Rules vfr VFR
WindCalm
Visibility9999 m
Phenomena:N/A
Clouds:N/A
Expected CloudBase > 2,800 ft AGL from Temp-Dew spread
CeilingNone
Temp07°C (ISA -8)
Dew Point00°C (61% RH)
AAT5.0°C
QNH1027 hPa
Density Alt-1,220 ft
Elevation105 ft
Report Wrong Elevation
Raw Report
KMNI 230355Z AUTO 00000KT 10SM CLR 07/00 A3034 RMK AO2=

Extra information for KMNI:More info

Metar Taf Metar & Taf Last 4 Metars F.Rules Stats Wind Profile Meteogram Temp Stats Airport Information Weather charts Add Link Nearby VenuesMetar ALERT Operation Metar Decoded Social comments

AIRNAV info for KMNI